createdAt,value
2019-02-25T00:00:02.791Z,48.71
2019-02-25T00:00:43.156Z,48.99
2019-02-25T00:01:23.595Z,49.35
2019-02-25T00:02:04.010Z,50.01
2019-02-25T00:02:44.405Z,49.82
2019-02-25T00:03:24.858Z,50.29
2019-02-25T00:04:05.235Z,50.2
2019-02-25T00:04:45.643Z,50.29
2019-02-25T00:05:26.082Z,50.29
2019-02-25T00:06:06.427Z,50.39
2019-02-25T00:06:46.800Z,49.89
2019-02-25T00:07:27.185Z,50.08
2019-02-25T00:08:07.539Z,50.18
2019-02-25T00:08:47.926Z,50.37
2019-02-25T00:09:28.356Z,50.84
2019-02-25T00:10:08.789Z,51.31
2019-02-25T00:10:49.162Z,51.22
2019-02-25T00:11:29.553Z,51.51
2019-02-25T00:12:09.909Z,51.41
2019-02-25T00:12:50.351Z,51.6
2019-02-25T00:13:30.707Z,51.6
2019-02-25T00:14:11.116Z,51.03
2019-02-25T00:14:51.523Z,51.22
2019-02-25T00:15:31.945Z,51.41
2019-02-25T00:16:13.995Z,51.31
2019-02-25T00:16:54.392Z,51.22
2019-02-25T00:17:34.779Z,51.03
2019-02-25T00:18:15.197Z,51.31
2019-02-25T00:18:55.582Z,51.31
2019-02-25T00:19:35.992Z,50.74
2019-02-25T00:20:16.347Z,51.12
2019-02-25T00:20:56.760Z,51.79
2019-02-25T00:21:37.158Z,52.26
2019-02-25T00:22:17.559Z,52.36
2019-02-25T00:22:57.961Z,52.64
2019-02-25T00:23:38.376Z,51.89
2019-02-25T00:24:18.823Z,52.64
2019-02-25T00:25:01.780Z,52.64
2019-02-25T00:25:49.241Z,52.74
2019-02-25T00:26:29.677Z,52.84
2019-02-25T00:27:10.069Z,53.03
2019-02-25T00:27:50.495Z,52.26
2019-02-25T00:28:30.934Z,52.17
2019-02-25T00:29:11.321Z,51.7
2019-02-25T00:29:51.747Z,51.31
2019-02-25T00:30:33.777Z,51.79
2019-02-25T00:31:23.052Z,51.79
2019-02-25T00:32:03.487Z,53.12
2019-02-25T00:32:43.893Z,53.69
2019-02-25T00:33:24.286Z,53.78
2019-02-25T00:34:04.708Z,52.93
2019-02-25T00:34:45.129Z,52.74
2019-02-25T00:35:25.530Z,51.31
2019-02-25T00:36:05.969Z,51.22
2019-02-25T00:36:46.330Z,50.96
2019-02-25T00:37:26.699Z,50.93
2019-02-25T00:38:07.076Z,49.91
2019-02-25T00:38:47.469Z,50.74
2019-02-25T00:39:27.865Z,50.27
2019-02-25T00:40:08.218Z,50.74
2019-02-25T00:40:48.618Z,50.37
2019-02-25T00:41:30.858Z,50.27
2019-02-25T00:42:11.253Z,50.37
2019-02-25T00:42:51.664Z,50.56
2019-02-25T00:43:32.048Z,50.65
2019-02-25T00:44:12.463Z,50.46
2019-02-25T00:44:52.902Z,50.74
2019-02-25T00:45:33.262Z,51.31
2019-02-25T00:46:13.663Z,51.22
2019-02-25T00:46:54.018Z,51.12
2019-02-25T00:47:34.394Z,51.03
2019-02-25T00:48:14.778Z,51.51
2019-02-25T00:48:55.191Z,51.6
2019-02-25T00:49:35.555Z,51.41
2019-02-25T00:50:15.943Z,51.6
2019-02-25T00:50:56.323Z,51.6
2019-02-25T00:51:36.723Z,51.31
2019-02-25T00:52:17.137Z,51.41
2019-02-25T00:52:57.541Z,51.03
2019-02-25T00:53:37.977Z,50.65
2019-02-25T00:54:18.328Z,50.65
2019-02-25T00:54:58.710Z,50.46
2019-02-25T00:55:39.108Z,50.65
2019-02-25T00:56:19.560Z,50.46
2019-02-25T00:56:59.932Z,51.22
2019-02-25T00:57:40.342Z,51.41
2019-02-25T00:58:20.701Z,50.93
2019-02-25T00:59:01.120Z,51.03
2019-02-25T00:59:41.495Z,51.41
2019-02-25T01:00:21.928Z,51.31
2019-02-25T01:01:02.308Z,51.6
2019-02-25T01:01:42.725Z,52.17
2019-02-25T01:02:23.128Z,51.79
2019-02-25T01:03:03.551Z,52.17
2019-02-25T01:03:43.972Z,51.51
2019-02-25T01:04:24.350Z,51.51
2019-02-25T01:05:04.737Z,51.7
2019-02-25T01:05:45.125Z,51.6
2019-02-25T01:06:25.532Z,51.89
2019-02-25T01:07:05.984Z,51.51
2019-02-25T01:07:46.339Z,52.55
2019-02-25T01:08:26.753Z,53.03
2019-02-25T01:09:07.160Z,51.89
2019-02-25T01:09:47.755Z,51.41
2019-02-25T01:10:28.142Z,51.41
2019-02-25T01:11:08.551Z,51.22
2019-02-25T01:11:48.970Z,51.12
2019-02-25T01:12:29.402Z,50.93
2019-02-25T01:13:09.753Z,51.41
2019-02-25T01:13:50.164Z,51.31
2019-02-25T01:14:30.578Z,51.89
2019-02-25T01:15:10.937Z,52.08
2019-02-25T01:15:51.354Z,52.08
2019-02-25T01:16:31.751Z,52.84
2019-02-25T01:17:12.148Z,52.45
2019-02-25T01:17:52.549Z,52.55
2019-02-25T01:18:32.924Z,51.89
2019-02-25T01:19:13.358Z,51.98
2019-02-25T01:19:53.719Z,51.98
2019-02-25T01:20:34.166Z,51.7
2019-02-25T01:21:14.496Z,51.51
2019-02-25T01:21:54.889Z,51.51
2019-02-25T01:22:35.257Z,51.7
2019-02-25T01:23:15.647Z,51.98
2019-02-25T01:23:56.038Z,52.74
2019-02-25T01:24:36.436Z,52.26
2019-02-25T01:25:16.797Z,52.55
2019-02-25T01:25:57.214Z,52.45
2019-02-25T01:26:37.617Z,52.45
2019-02-25T01:27:17.955Z,52.45
2019-02-25T01:27:58.330Z,52.55
2019-02-25T01:28:38.739Z,51.89
2019-02-25T01:29:19.105Z,52.93
2019-02-25T01:31:23.468Z,51.7
2019-02-25T01:34:00.443Z,52.45
2019-02-25T01:34:40.647Z,52.36
2019-02-25T01:35:21.059Z,52.74
2019-02-25T01:36:01.463Z,53.38
2019-02-25T01:36:41.836Z,53.19
2019-02-25T01:37:22.222Z,53.57
2019-02-25T01:38:02.589Z,53.95
2019-02-25T01:38:43.022Z,54.43
2019-02-25T01:39:23.435Z,54.43
2019-02-25T01:49:13.819Z,55.66
2019-02-25T01:50:02.507Z,55.57
2019-02-25T01:50:52.907Z,54.9
2019-02-25T01:51:41.201Z,54.52
2019-02-25T01:52:31.242Z,54.14
2019-02-25T01:53:24.374Z,54.52
2019-02-25T01:54:12.847Z,54.52
2019-02-25T01:55:04.835Z,54.8
2019-02-25T01:55:53.608Z,55.85
2019-02-25T01:56:43.677Z,56.7
2019-02-25T01:57:36.108Z,56.7
2019-02-25T01:58:22.915Z,56.89
2019-02-25T01:59:13.676Z,56.23
2019-02-25T02:00:03.032Z,56.23
2019-02-25T02:00:54.025Z,57.37
2019-02-25T02:01:44.622Z,57.15
2019-02-25T02:02:35.127Z,56.49
2019-02-25T02:03:25.683Z,56.13
2019-02-25T02:04:14.717Z,55.82
2019-02-25T02:05:03.957Z,56.39
2019-02-25T02:05:54.087Z,56.01
2019-02-25T02:06:46.782Z,55.91
2019-02-25T02:07:38.333Z,55.82
2019-02-25T02:08:28.315Z,56.2
2019-02-25T02:09:19.428Z,55.91
2019-02-25T02:10:07.772Z,56.2
2019-02-25T02:10:58.544Z,56.29
2019-02-25T02:11:51.652Z,56.29
2019-02-25T02:12:40.514Z,56.29
2019-02-25T02:15:17.626Z,57.28
2019-02-25T02:15:57.901Z,56.8
2019-02-25T02:16:38.292Z,57.75
2019-02-25T02:17:18.682Z,56.89
2019-02-25T02:17:59.130Z,57.18
2019-02-25T02:18:39.480Z,56.61
2019-02-25T02:19:19.879Z,56.7
2019-02-25T02:20:00.300Z,56.23
2019-02-25T02:20:40.667Z,56.42
2019-02-25T02:21:21.092Z,56.51
2019-02-25T02:22:01.470Z,56.04
2019-02-25T02:22:41.880Z,56.23
2019-02-25T02:23:22.290Z,55.57
2019-02-25T02:24:02.705Z,55.85
2019-02-25T02:24:43.123Z,56.32
2019-02-25T02:25:23.513Z,55.66
2019-02-25T02:26:03.909Z,54.99
2019-02-25T02:26:44.341Z,54.8
2019-02-25T02:27:24.729Z,55.09
2019-02-25T02:28:05.140Z,54.8
2019-02-25T02:28:45.573Z,54.9
2019-02-25T02:29:25.976Z,55.09
2019-02-25T02:30:06.380Z,54.61
2019-02-25T02:30:46.757Z,55.28
2019-02-25T02:31:27.165Z,55.18
2019-02-25T02:32:07.522Z,54.99
2019-02-25T02:32:47.963Z,54.52
2019-02-25T02:33:28.334Z,54.61
2019-02-25T02:34:08.660Z,54.05
2019-02-25T02:34:49.081Z,53.57
2019-02-25T02:35:29.519Z,54.14
2019-02-25T02:36:11.631Z,54.05
2019-02-25T02:36:50.245Z,54.52
2019-02-25T02:37:32.260Z,54.24
2019-02-25T02:38:12.678Z,54.52
2019-02-25T02:38:53.085Z,54.52
2019-02-25T02:39:33.469Z,54.14
2019-02-25T02:40:13.882Z,53.95
2019-02-25T02:40:54.297Z,54.43
2019-02-25T02:41:34.700Z,54.71
2019-02-25T02:42:15.124Z,53.95
2019-02-25T02:42:55.513Z,54.64
2019-02-25T02:43:35.908Z,54.83
2019-02-25T02:44:16.301Z,54.74
2019-02-25T02:44:56.716Z,54.55
2019-02-25T02:45:37.110Z,53.88
2019-02-25T02:46:17.493Z,53.78
2019-02-25T02:46:57.887Z,53.03
2019-02-25T02:47:38.274Z,52.74
2019-02-25T02:48:18.695Z,52.64
2019-02-25T02:48:59.050Z,52.64
2019-02-25T02:49:39.432Z,51.6
2019-02-25T02:50:19.863Z,50.37
2019-02-25T02:51:00.225Z,50.84
2019-02-25T02:51:40.610Z,50.84
2019-02-25T02:52:21.019Z,51.22
2019-02-25T02:53:01.458Z,51.41
2019-02-25T02:53:41.830Z,51.98
2019-02-25T02:54:22.300Z,52.64
2019-02-25T02:55:02.667Z,52.55
2019-02-25T02:55:43.147Z,52.74
2019-02-25T02:56:23.510Z,52.74
2019-02-25T02:57:03.927Z,53.05
2019-02-25T02:57:44.301Z,52.58
2019-02-25T02:58:24.716Z,52.58
2019-02-25T02:59:05.130Z,51.53
2019-02-25T02:59:45.512Z,50.96
2019-02-25T03:00:25.915Z,49.91
2019-02-25T03:01:06.322Z,49.15
2019-02-25T03:01:46.751Z,49.44
2019-02-25T03:02:27.126Z,49.73
2019-02-25T03:03:07.494Z,50.2
2019-02-25T03:03:47.951Z,50.48
2019-02-25T03:04:28.282Z,51.34
2019-02-25T03:05:08.690Z,50.79
2019-02-25T03:05:49.129Z,50.79
2019-02-25T03:06:29.500Z,51.08
2019-02-25T03:07:09.902Z,50.23
2019-02-25T03:07:50.317Z,49.37
2019-02-25T03:08:30.770Z,49.37
2019-02-25T03:09:11.126Z,48.61
2019-02-25T03:09:51.548Z,48.13
2019-02-25T03:10:31.993Z,48.06
2019-02-25T03:11:12.359Z,48.23
2019-02-25T03:11:52.790Z,48.03
2019-02-25T03:12:33.180Z,46.51
2019-02-25T03:13:13.600Z,46.23
2019-02-25T03:13:54.006Z,46.14
2019-02-25T03:17:59.278Z,48.32
2019-02-25T03:18:48.925Z,47.44
2019-02-25T03:19:37.817Z,46.68
2019-02-25T03:20:28.508Z,46.4
2019-02-25T03:21:17.943Z,46.49
2019-02-25T03:22:07.948Z,47.16
2019-02-25T03:22:57.633Z,47.63
2019-02-25T03:23:38.095Z,48.77
2019-02-25T03:24:18.376Z,48.85
2019-02-25T03:24:59.060Z,49.32
2019-02-25T03:25:39.514Z,49.22
2019-02-25T03:26:19.947Z,49.41
2019-02-25T03:27:00.523Z,49.7
2019-02-25T03:27:40.768Z,50.27
2019-02-25T03:28:21.175Z,50.37
2019-02-25T03:29:01.663Z,50.65
2019-02-25T03:29:42.157Z,50.84
2019-02-25T03:30:22.565Z,51.39
2019-02-25T03:31:02.970Z,51.76
2019-02-25T03:31:43.476Z,52.05
2019-02-25T03:32:23.888Z,52.43
2019-02-25T03:33:04.267Z,52.53
2019-02-25T03:33:44.875Z,52.72
2019-02-25T03:34:25.324Z,53.28
2019-02-25T03:35:05.729Z,54.52
2019-02-25T03:35:46.103Z,55.47
2019-02-25T03:36:26.547Z,55.94
2019-02-25T03:37:06.915Z,54.61
2019-02-25T03:37:47.278Z,54.02
2019-02-25T03:38:27.755Z,54.3
2019-02-25T03:39:08.326Z,54.21
2019-02-25T03:39:48.961Z,54.21
2019-02-25T03:40:29.341Z,54.49
2019-02-25T03:41:09.875Z,54.87
2019-02-25T03:41:50.475Z,54.68
2019-02-25T03:42:31.005Z,54.97
2019-02-25T03:43:11.616Z,55.35
2019-02-25T03:43:52.347Z,55.06
2019-02-25T03:44:32.548Z,55.73
2019-02-25T03:45:13.305Z,56.29
2019-02-25T03:45:53.933Z,56.29
2019-02-25T03:46:34.472Z,56.27
2019-02-25T03:47:15.009Z,56.39
2019-02-25T03:47:55.670Z,56.93
2019-02-25T03:48:36.082Z,57.5
2019-02-25T03:49:16.457Z,57.98
2019-02-25T03:49:57.059Z,59.11
2019-02-25T03:50:37.733Z,59.33
2019-02-25T03:51:18.286Z,59.02
2019-02-25T03:51:58.763Z,58.76
2019-02-25T03:52:39.313Z,58.58
2019-02-25T03:53:19.806Z,58.39
2019-02-25T03:54:00.235Z,57.72
2019-02-25T03:54:40.628Z,56.96
2019-02-25T03:55:21.017Z,57.24
2019-02-25T03:56:01.399Z,57.43
2019-02-25T03:56:41.913Z,57.43
2019-02-25T03:57:22.522Z,57.15
2019-02-25T03:58:02.832Z,56.2
2019-02-25T03:58:43.258Z,57.24
2019-02-25T03:59:23.653Z,57.24
2019-02-25T04:00:04.092Z,56.96
2019-02-25T04:00:44.490Z,57.06
2019-02-25T04:01:24.938Z,56.96
2019-02-25T04:02:05.339Z,57.34
2019-02-25T04:02:45.767Z,57.34
2019-02-25T04:03:26.169Z,57.72
2019-02-25T04:04:06.586Z,58.2
2019-02-25T04:04:47.036Z,57.91
2019-02-25T04:05:27.445Z,58
2019-02-25T04:06:07.764Z,59.05
2019-02-25T04:06:48.242Z,59.14
2019-02-25T04:07:28.600Z,58.29
2019-02-25T04:08:09.102Z,57.81
2019-02-25T04:08:49.482Z,57.81
2019-02-25T04:09:29.867Z,57.62
2019-02-25T04:10:10.310Z,57.53
2019-02-25T04:10:50.898Z,58.1
2019-02-25T04:11:31.435Z,58.58
2019-02-25T04:12:11.835Z,59.05
2019-02-25T04:12:52.515Z,59.14
2019-02-25T04:13:32.826Z,59.43
2019-02-25T04:14:13.097Z,60.19
2019-02-25T04:14:53.548Z,59.62
2019-02-25T04:15:33.953Z,59.33
2019-02-25T04:16:14.364Z,58.39
2019-02-25T04:16:54.765Z,58.58
2019-02-25T04:17:35.254Z,58
2019-02-25T04:18:15.740Z,57.53
2019-02-25T04:18:56.257Z,58.58
2019-02-25T04:19:36.886Z,59.43
2019-02-25T04:20:17.320Z,59.71
2019-02-25T04:20:57.937Z,59.43
2019-02-25T04:21:38.352Z,58.67
2019-02-25T04:22:18.888Z,58.03
2019-02-25T04:22:59.470Z,56.61
2019-02-25T04:23:40.178Z,55.94
2019-02-25T04:24:20.927Z,55.91
2019-02-25T04:25:01.375Z,57.28
2019-02-25T04:25:42.374Z,56.8
2019-02-25T04:26:23.019Z,56.04
2019-02-25T04:27:03.925Z,54.9
2019-02-25T04:27:44.393Z,53.95
2019-02-25T04:28:25.527Z,55.06
2019-02-25T04:29:06.053Z,55.57
2019-02-25T05:06:19.049Z,64.2
2019-02-25T05:06:59.413Z,64.97
2019-02-25T05:07:39.864Z,64.78
2019-02-25T05:08:20.978Z,65.16
2019-02-25T05:09:01.486Z,64.11
2019-02-25T05:09:41.884Z,63.26
2019-02-25T05:10:22.385Z,62.78
2019-02-25T05:11:02.750Z,62.4
2019-02-25T05:11:43.188Z,62.59
2019-02-25T05:12:23.555Z,62.78
2019-02-25T05:13:03.969Z,63.35
2019-02-25T05:13:44.431Z,63.35
2019-02-25T05:14:25.149Z,63.82
2019-02-25T05:15:05.541Z,64.3
2019-02-25T05:15:45.919Z,62.97
2019-02-25T05:16:33.321Z,63.35
2019-02-25T05:17:13.734Z,62.78
2019-02-25T05:17:54.172Z,62.69
2019-02-25T05:18:34.522Z,64.49
2019-02-25T05:19:14.941Z,64.3
2019-02-25T05:19:55.426Z,61.93
2019-02-25T05:20:35.693Z,60.89
2019-02-25T05:21:16.089Z,60.7
2019-02-25T05:21:56.471Z,61.08
2019-02-25T05:22:37.638Z,61.27
2019-02-25T05:23:17.326Z,60.98
2019-02-25T05:23:57.706Z,60.79
2019-02-25T05:24:38.125Z,60.41
2019-02-25T05:25:18.434Z,61.46
2019-02-25T05:25:58.866Z,60.98
2019-02-25T05:26:39.227Z,61.74
2019-02-25T05:27:19.657Z,61.83
2019-02-25T05:28:00.125Z,62.78
2019-02-25T05:28:40.521Z,62.4
2019-02-25T05:29:20.904Z,61.83
2019-02-25T05:30:01.315Z,61.46
2019-02-25T05:30:41.718Z,61.49
2019-02-25T05:31:22.129Z,61.01
2019-02-25T05:32:02.460Z,61.96
2019-02-25T05:32:42.908Z,61.49
2019-02-25T05:33:23.306Z,61.49
2019-02-25T05:34:03.624Z,60.82
2019-02-25T05:34:44.050Z,60.73
2019-02-25T05:35:24.379Z,60.82
2019-02-25T05:36:04.894Z,61.49
2019-02-25T05:36:45.284Z,60.92
2019-02-25T05:37:25.734Z,60.92
2019-02-25T05:38:06.100Z,60.82
2019-02-25T05:38:46.525Z,61.11
2019-02-25T05:39:26.918Z,61.3
2019-02-25T05:40:07.335Z,60.16
2019-02-25T05:40:47.762Z,59.78
2019-02-25T05:41:28.169Z,59.59
2019-02-25T05:42:08.597Z,60.92
2019-02-25T05:42:48.971Z,61.49
2019-02-25T05:43:29.395Z,59.97
2019-02-25T05:44:09.840Z,60.06
2019-02-25T05:44:50.214Z,59.68
2019-02-25T05:45:30.609Z,59.4
2019-02-25T05:46:10.983Z,59.68
2019-02-25T05:46:51.389Z,59.02
2019-02-25T05:47:31.797Z,60.06
2019-02-25T05:48:12.192Z,59.4
2019-02-25T05:48:54.369Z,58.54
2019-02-25T05:49:34.820Z,58.64
2019-02-25T05:50:15.901Z,58.83
2019-02-25T05:50:56.299Z,58.64
2019-02-25T05:51:36.612Z,59.21
2019-02-25T05:52:16.989Z,59.11
2019-02-25T05:52:57.355Z,59.21
2019-02-25T05:53:37.878Z,59.68
2019-02-25T05:54:18.268Z,59.68
2019-02-25T05:54:58.669Z,59.68
2019-02-25T05:55:39.064Z,60.35
2019-02-25T05:56:19.467Z,59.78
2019-02-25T05:56:59.900Z,59.88
2019-02-25T05:57:40.256Z,61.01
2019-02-25T05:58:20.669Z,61.96
2019-02-25T05:59:01.057Z,61.39
2019-02-25T05:59:41.403Z,61.87
2019-02-25T06:00:21.843Z,61.87
2019-02-25T06:01:02.231Z,60.63
2019-02-25T06:01:42.550Z,61.52
2019-02-25T06:02:22.960Z,61.33
2019-02-25T06:03:03.311Z,60.76
2019-02-25T06:03:43.729Z,60.76
2019-02-25T06:04:24.245Z,60.28
2019-02-25T06:05:04.607Z,59.91
2019-02-25T06:05:45.005Z,60.19
2019-02-25T06:06:25.449Z,59.91
2019-02-25T06:07:05.930Z,59.81
2019-02-25T06:07:46.329Z,60.38
2019-02-25T06:08:26.719Z,59.71
2019-02-25T06:09:07.126Z,59.33
2019-02-25T06:09:47.568Z,59.24
2019-02-25T06:10:27.894Z,59.33
2019-02-25T06:11:08.261Z,59.62
2019-02-25T06:11:48.659Z,59.71
2019-02-25T06:12:29.059Z,59.52
2019-02-25T06:13:09.449Z,58.95
2019-02-25T06:13:49.880Z,59.14
2019-02-25T06:14:30.248Z,60.19
2019-02-25T06:15:10.681Z,60.88
2019-02-25T06:15:51.465Z,61.17
2019-02-25T06:16:31.470Z,60.03
2019-02-25T06:17:11.958Z,58.8
2019-02-25T06:26:40.167Z,59.36
2019-02-25T06:27:38.430Z,58.48
2019-02-25T06:28:33.545Z,57.62
2019-02-25T06:29:31.676Z,58.48
2019-02-25T06:30:27.948Z,58.76
2019-02-25T06:31:21.930Z,58.58
2019-02-25T06:32:19.005Z,58.29
2019-02-25T06:33:15.082Z,58.58
2019-02-25T06:34:13.894Z,59.24
2019-02-25T06:37:51.589Z,57.53
2019-02-25T06:38:35.568Z,57.34
2019-02-25T06:41:16.441Z,58.2
2019-02-25T06:41:56.731Z,58.2
2019-02-25T06:42:37.168Z,58.58
2019-02-25T06:43:17.572Z,58.22
2019-02-25T06:48:16.140Z,55.94
2019-02-25T06:48:56.278Z,55.94
2019-02-25T06:49:36.807Z,55.94
2019-02-25T06:50:17.237Z,55.94
2019-02-25T06:50:58.600Z,55.09
2019-02-25T06:51:39.027Z,55.85
2019-02-25T06:52:20.060Z,55.94
2019-02-25T06:52:59.965Z,55.57
2019-02-25T06:53:40.403Z,55.85
2019-02-25T06:54:20.742Z,55.59
2019-02-25T06:55:01.116Z,55.4
2019-02-25T06:55:41.494Z,54.74
2019-02-25T06:56:21.943Z,54.55
2019-02-25T06:57:02.495Z,53.88
2019-02-25T06:57:42.892Z,53.5
2019-02-25T06:58:23.319Z,53.22
2019-02-25T06:59:03.825Z,52.74
2019-02-25T06:59:44.362Z,52.29
2019-02-25T07:00:24.768Z,53.05
2019-02-25T07:01:05.136Z,53.34
2019-02-25T07:01:45.632Z,52.86
2019-02-25T07:02:25.985Z,53.24
2019-02-25T07:03:06.411Z,52.67
2019-02-25T07:03:46.985Z,52.1
2019-02-25T07:04:27.402Z,51.34
2019-02-25T07:05:07.788Z,51.43
2019-02-25T07:05:48.248Z,50.77
2019-02-25T07:08:30.694Z,49.94
2019-02-25T07:10:29.703Z,48.82
2019-02-25T07:11:10.001Z,48.54
2019-02-25T07:11:50.440Z,48.25
2019-02-25T07:12:31.036Z,48.54
2019-02-25T07:13:12.271Z,48.16
2019-02-25T07:13:52.264Z,47.78
2019-02-25T07:14:32.667Z,48.16
2019-02-25T07:15:13.077Z,49.51
2019-02-25T07:15:53.485Z,48.75
2019-02-25T07:16:33.857Z,48.08
2019-02-25T07:17:14.289Z,47.04
2019-02-25T07:17:54.753Z,46.28
2019-02-25T07:18:37.743Z,45.99
2019-02-25T07:19:18.196Z,45.8
2019-02-25T07:19:58.604Z,46.01
2019-02-25T07:20:39.773Z,46.11
2019-02-25T07:21:20.183Z,45.63
2019-02-25T07:22:00.623Z,45.35
2019-02-25T07:22:41.146Z,45.35
2019-02-25T07:23:21.563Z,45.35
2019-02-25T07:24:02.017Z,45.47
2019-02-25T07:24:42.563Z,44.7
2019-02-25T07:25:22.898Z,45.08
2019-02-25T07:26:03.291Z,44.8
2019-02-25T07:26:43.732Z,43.94
2019-02-25T07:27:24.260Z,43.94
2019-02-25T07:28:04.617Z,44.42
2019-02-25T07:28:45.025Z,43.84
2019-02-25T07:29:25.417Z,43.18
2019-02-25T07:30:05.962Z,42.8
2019-02-25T07:30:46.907Z,42.89
2019-02-25T07:31:27.534Z,42.34
2019-02-25T07:32:08.080Z,41.86
2019-02-25T07:32:48.686Z,41.48
2019-02-25T07:33:29.212Z,41
2019-02-25T07:34:09.805Z,41
2019-02-25T07:34:51.227Z,40.05
2019-02-25T07:35:30.817Z,40.26
2019-02-25T07:36:11.342Z,39.5
2019-02-25T07:36:52.728Z,39.88
2019-02-25T07:37:33.204Z,38.95
2019-02-25T07:38:15.368Z,38.28
2019-02-25T07:38:56.461Z,38.37
2019-02-25T07:39:36.794Z,38.37
2019-02-25T07:45:10.433Z,36.48
2019-02-25T07:45:51.466Z,36.39
2019-02-25T07:46:32.184Z,36.79
2019-02-25T07:47:13.003Z,35.74
2019-02-25T07:47:53.340Z,35.83
2019-02-25T07:48:34.573Z,35.64
2019-02-25T07:49:14.809Z,35.16
2019-02-25T07:49:55.772Z,35.08
2019-02-25T07:50:36.248Z,34.99
2019-02-25T07:51:17.341Z,34.8
2019-02-25T07:51:58.180Z,34.7
2019-02-25T07:52:38.615Z,34.8
2019-02-25T07:53:19.404Z,34.32
2019-02-25T07:53:59.766Z,34.32
2019-02-25T07:54:40.604Z,33.94
2019-02-25T07:55:21.072Z,33.95
2019-02-25T07:56:02.450Z,33.86
2019-02-25T07:56:42.074Z,33.94
2019-02-25T07:57:22.484Z,34.14
2019-02-25T07:58:03.091Z,34.43
2019-02-25T07:58:43.469Z,34.72
2019-02-25T07:59:23.877Z,34.24
2019-02-25T08:04:39.777Z,33.49
2019-02-25T08:05:47.241Z,33.11
2019-02-25T08:06:52.612Z,32.82
2019-02-25T08:07:53.306Z,32.93
2019-02-25T08:08:54.926Z,32.55
2019-02-25T08:09:57.348Z,32.75
2019-02-25T11:07:18.756Z,22.77
2019-02-25T11:08:00.284Z,23.83
2019-02-25T11:08:41.476Z,23.54
2019-02-25T11:09:21.343Z,22.39
2019-02-25T11:10:03.847Z,22
2019-02-25T11:10:46.740Z,22.67
2019-02-25T11:11:28.494Z,23.15
2019-02-25T11:12:08.903Z,22.77
2019-02-25T11:12:51.123Z,22.86
2019-02-25T11:13:32.242Z,22.76
2019-02-25T11:14:11.978Z,22.76
2019-02-25T11:14:54.370Z,22.56
2019-02-25T11:15:37.386Z,22.66
2019-02-25T11:16:18.567Z,23.03
2019-02-25T11:16:58.376Z,23.61
2019-02-25T11:17:38.858Z,24.48
2019-02-25T11:18:20.329Z,24.28
2019-02-25T11:19:01.102Z,24.49
2019-02-25T11:19:41.573Z,24.1
2019-02-25T11:20:22.033Z,23.62
2019-02-25T11:21:03.533Z,23.72
2019-02-25T11:21:44.232Z,23.24
2019-02-25T11:22:24.379Z,23.62
2019-02-25T11:23:04.793Z,23.14
2019-02-25T11:23:46.721Z,23.52
2019-02-25T11:24:25.646Z,23.06
2019-02-25T11:25:07.791Z,23.63
2019-02-25T11:25:49.137Z,23.15
2019-02-25T11:26:30.601Z,22.69
2019-02-25T11:27:09.989Z,22.69
2019-02-25T11:27:50.370Z,22.2
2019-02-25T11:28:31.835Z,21.83
2019-02-25T11:29:11.767Z,22.89
2019-02-25T11:29:51.585Z,22.79
2019-02-25T11:30:32.002Z,22.12
2019-02-25T11:31:12.419Z,21.84
2019-02-25T11:31:53.545Z,22.03
2019-02-25T11:32:33.196Z,21.94
2019-02-25T11:33:13.618Z,21.94
2019-02-25T11:33:54.010Z,22.03
2019-02-25T11:34:35.656Z,22.02
2019-02-25T11:35:14.849Z,21.92
2019-02-25T11:35:55.250Z,22.41
2019-02-25T11:36:36.647Z,22.22
2019-02-25T11:37:19.020Z,22.89
2019-02-25T11:38:02.465Z,22.5
2019-02-25T11:38:42.978Z,21.92
2019-02-25T11:39:25.093Z,21.83
2019-02-25T11:40:06.337Z,22.39
2019-02-25T11:40:46.857Z,22.69
2019-02-25T11:41:27.221Z,23.06
2019-02-25T11:42:08.335Z,23.46
2019-02-25T11:42:48.108Z,23.26
2019-02-25T11:43:28.534Z,23.46
2019-02-25T11:44:09.115Z,23.26
2019-02-25T11:44:49.516Z,23.46
2019-02-25T11:45:29.953Z,23.46
2019-02-25T11:46:10.344Z,23.18
2019-02-25T11:48:01.455Z,23.09
2019-02-25T11:48:41.991Z,21.94
2019-02-25T11:49:22.615Z,21.95
2019-02-25T11:50:02.831Z,21.85
2019-02-25T11:50:44.746Z,21.55
2019-02-25T11:51:23.770Z,23.47
2019-02-25T11:52:04.064Z,23.97
2019-02-25T11:52:44.582Z,22.62
2019-02-25T11:53:25.073Z,21.67
2019-02-25T11:54:05.482Z,21.28
2019-02-25T11:54:45.861Z,21.58
2019-02-25T11:55:26.285Z,21.58
2019-02-25T11:56:06.757Z,21.48
2019-02-25T11:56:47.083Z,21.48
2019-02-25T11:57:27.576Z,21.19
2019-02-25T11:58:08.042Z,20.7
2019-02-25T11:58:48.521Z,20.7
2019-02-25T11:59:30.639Z,20.8
2019-02-25T12:00:09.260Z,21
2019-02-25T12:00:49.731Z,21.01
2019-02-25T12:01:31.030Z,21.2
2019-02-25T12:02:11.322Z,21.1
2019-02-25T12:02:53.092Z,20.63
2019-02-25T12:03:33.926Z,20.63
2019-02-25T12:04:14.855Z,20.23
2019-02-25T12:04:55.775Z,20.43
2019-02-25T12:05:37.906Z,20.25
2019-02-25T12:06:19.010Z,20.05
2019-02-25T12:06:59.447Z,20.25
2019-02-25T12:07:40.062Z,20.53
2019-02-25T12:08:22.586Z,20.05
2019-02-25T12:09:03.013Z,21.79
2019-02-25T12:09:43.402Z,20.73
2019-02-25T12:10:23.814Z,20.25
2019-02-25T12:11:04.265Z,20.45
2019-02-25T12:11:44.640Z,20.35
2019-02-25T12:13:40.227Z,19.49
2019-02-25T12:14:20.988Z,19.49
2019-02-25T12:15:02.356Z,19.6
2019-02-25T12:15:41.998Z,19.79
2019-02-25T12:16:23.468Z,19.02
2019-02-25T12:17:05.827Z,18.92
2019-02-25T12:17:46.271Z,18.92
2019-02-25T12:18:26.656Z,18.34
2019-02-25T12:19:07.037Z,18.34
2019-02-25T12:19:47.499Z,18.44
2019-02-25T12:20:27.867Z,18.43
2019-02-25T12:21:08.245Z,19.31
2019-02-25T12:21:48.653Z,18.92
2019-02-25T12:22:29.080Z,18.82
2019-02-25T12:23:09.617Z,18.72
2019-02-25T12:23:50.329Z,18.99
2019-02-25T12:24:30.687Z,20.25
2019-02-25T12:25:11.651Z,21.3
2019-02-25T12:25:52.974Z,21.4
2019-02-25T12:26:33.649Z,20.81
2019-02-25T12:27:14.411Z,21.01
2019-02-25T12:27:55.126Z,20.53
2019-02-25T12:28:36.769Z,20.05
2019-02-25T12:29:17.271Z,20.53
2019-02-25T12:29:57.678Z,20.63
2019-02-25T12:30:38.099Z,20.15
2019-02-25T12:31:18.433Z,19.95
2019-02-25T12:31:58.917Z,20.05
2019-02-25T12:32:39.282Z,20.53
2019-02-25T12:33:19.738Z,20.25
2019-02-25T12:34:00.160Z,20.25
2019-02-25T12:34:40.608Z,20.63
2019-02-25T12:35:20.971Z,20.92
2019-02-25T12:37:13.547Z,20.05
2019-02-25T12:37:54.023Z,20.06
2019-02-25T12:38:35.451Z,20.16
2019-02-25T12:39:15.840Z,19.68
2019-02-25T12:39:56.209Z,19.68
2019-02-25T12:40:36.601Z,19.95
2019-02-25T12:41:17.115Z,20.43
2019-02-25T12:41:57.512Z,20.25
2019-02-25T12:42:37.902Z,20.15
2019-02-25T12:43:18.306Z,20.15
2019-02-25T12:43:58.753Z,20.15
2019-02-25T12:44:39.157Z,20.63
2019-02-25T12:45:19.595Z,20.91
2019-02-25T12:46:00.037Z,20.81
2019-02-25T12:47:58.362Z,21.11
2019-02-25T12:48:38.724Z,21.51
2019-02-25T12:49:19.143Z,21.91
2019-02-25T12:49:59.564Z,22
2019-02-25T12:50:39.992Z,21.62
2019-02-25T12:51:20.377Z,20.37
2019-02-25T12:52:00.822Z,20.56
2019-02-25T12:52:41.429Z,20.28
2019-02-25T12:53:21.924Z,19.8
2019-02-25T12:54:02.391Z,19.22
2019-02-25T12:54:42.876Z,19.21
2019-02-25T12:55:23.242Z,19.98
2019-02-25T12:56:03.700Z,20.08
2019-02-25T12:56:44.125Z,20.28
2019-02-25T12:57:24.516Z,20.76
2019-02-25T12:58:04.934Z,20.47
2019-02-25T12:58:45.357Z,20.18
2019-02-25T12:59:25.735Z,20.18
2019-02-25T13:01:14.546Z,20.17
2019-02-25T13:01:55.244Z,21.42
2019-02-25T13:02:36.827Z,21.71
2019-02-25T13:03:18.311Z,21.82
2019-02-25T13:03:58.419Z,22.02
2019-02-25T13:04:39.062Z,20.77
2019-02-25T13:05:19.601Z,20.08
2019-02-25T13:06:01.521Z,19.98
2019-02-25T13:06:42.323Z,20.09
2019-02-25T13:07:22.097Z,20.08
2019-02-25T13:08:02.669Z,19.78
2019-02-25T13:08:43.088Z,20.07
2019-02-25T13:09:23.540Z,20.75
2019-02-25T13:10:04.071Z,21.13
2019-02-25T13:10:44.461Z,21.23
2019-02-25T13:11:24.903Z,20.94
2019-02-25T13:12:05.324Z,21.23
2019-02-25T13:12:45.815Z,20.65
2019-02-25T13:13:26.372Z,21.52
2019-02-25T13:14:06.964Z,21.62
2019-02-25T13:14:47.866Z,20.94
2019-02-25T13:15:28.884Z,21.04
2019-02-25T13:16:09.515Z,21.62
2019-02-25T13:16:50.534Z,21.72
2019-02-25T13:17:30.832Z,21.53
2019-02-25T13:18:11.502Z,21.53
2019-02-25T13:18:52.296Z,20.56
2019-02-25T13:19:32.860Z,20.76
2019-02-25T13:20:13.417Z,20.66
2019-02-25T13:20:53.795Z,20.65
2019-02-25T13:21:34.214Z,21.33